createdAt,value
2019-05-05T00:01:38.747Z,54.85
2019-05-05T00:04:34.730Z,61.00
2019-05-05T00:07:09.755Z,54.83
2019-05-05T00:09:45.532Z,51.65
2019-05-05T00:12:22.690Z,61.50
2019-05-05T00:15:14.592Z,66.62
2019-05-05T00:17:50.692Z,57.95
2019-05-05T00:20:26.059Z,66.57
2019-05-05T00:23:01.922Z,55.55
2019-05-05T00:25:37.457Z,60.48
2019-05-05T00:28:14.317Z,64.53
2019-05-05T00:30:49.832Z,59.27
2019-05-05T00:33:25.578Z,55.45
2019-05-05T00:36:01.002Z,61.25
2019-05-05T00:38:36.901Z,61.40
2019-05-05T00:41:14.651Z,62.70
2019-05-05T00:46:24.584Z,63.70
2019-05-05T00:48:59.971Z,64.00
2019-05-05T00:51:35.155Z,60.15
2019-05-05T00:54:15.213Z,62.30
2019-05-05T00:56:50.817Z,65.10
2019-05-05T00:59:34.794Z,61.28
2019-05-05T01:02:17.592Z,62.60
2019-05-05T01:04:59.450Z,67.05
2019-05-05T01:07:35.047Z,62.55
2019-05-05T01:10:14.315Z,60.60
2019-05-05T01:12:51.127Z,61.15
2019-05-05T01:18:02.297Z,61.77
2019-05-05T01:20:38.825Z,64.10
2019-05-05T01:23:15.020Z,68.05
2019-05-05T01:25:50.739Z,61.50
2019-05-05T01:28:26.193Z,62.78
2019-05-05T01:31:03.091Z,64.30
2019-05-05T01:33:39.611Z,60.30
2019-05-05T01:36:16.258Z,62.20
2019-05-05T01:39:04.334Z,68.27
2019-05-05T01:41:49.178Z,66.12
2019-05-05T01:44:27.995Z,63.92
2019-05-05T01:47:05.218Z,63.73
2019-05-05T01:49:39.918Z,67.87
2019-05-05T01:52:15.622Z,67.47
2019-05-05T01:54:57.284Z,71.33
2019-05-05T01:57:34.453Z,68.65
2019-05-05T02:00:14.844Z,75.83
2019-05-05T02:02:52.652Z,73.72
2019-05-05T02:05:27.924Z,69.87
2019-05-05T02:08:05.832Z,72.00
2019-05-05T02:10:45.177Z,76.37
2019-05-05T02:13:20.269Z,70.70
2019-05-05T02:15:56.087Z,66.55
2019-05-05T02:18:32.084Z,68.17
2019-05-05T02:21:14.624Z,71.40
2019-05-05T02:23:55.018Z,92.72
2019-05-05T02:26:34.870Z,82.05
2019-05-05T02:29:24.723Z,77.75
2019-05-05T02:32:18.387Z,73.45
2019-05-05T02:34:59.273Z,75.42
2019-05-05T02:37:36.445Z,89.87
2019-05-05T02:40:17.816Z,72.97
2019-05-05T02:42:59.111Z,77.87
2019-05-05T02:46:07.635Z,75.25
2019-05-05T02:48:44.982Z,76.85
2019-05-05T02:51:25.502Z,89.22
2019-05-05T02:54:01.227Z,81.08
2019-05-05T02:56:54.194Z,81.32
2019-05-05T03:00:13.487Z,79.35
2019-05-05T03:02:50.374Z,89.25
2019-05-05T03:05:26.297Z,91.22
2019-05-05T03:08:05.070Z,84.20
2019-05-05T03:13:40.561Z,77.50
2019-05-05T03:16:24.953Z,80.03
2019-05-05T03:18:59.937Z,92.08
2019-05-05T03:21:38.239Z,99.30
2019-05-05T03:24:15.557Z,80.75
2019-05-05T03:26:53.734Z,88.95
2019-05-05T03:29:28.933Z,83.17
2019-05-05T03:32:05.687Z,83.33
2019-05-05T03:34:44.513Z,90.12
2019-05-05T03:37:20.932Z,84.15
2019-05-05T03:39:57.755Z,89.13
2019-05-05T03:42:39.291Z,83.60
2019-05-05T03:45:19.072Z,85.50
2019-05-05T03:47:59.017Z,83.85
2019-05-05T03:50:38.894Z,80.57
2019-05-05T03:53:17.276Z,81.60
2019-05-05T03:55:54.524Z,81.12
2019-05-05T03:58:30.517Z,84.75
2019-05-05T04:01:26.647Z,84.37
2019-05-05T04:04:41.483Z,87.67
2019-05-05T04:07:16.646Z,83.37
2019-05-05T04:09:54.292Z,83.80
2019-05-05T04:12:31.556Z,82.20
2019-05-05T04:15:17.148Z,84.25
2019-05-05T04:18:15.227Z,88.45
2019-05-05T04:20:50.768Z,92.82
2019-05-05T04:23:36.820Z,87.67
2019-05-05T04:26:16.163Z,88.15
2019-05-05T04:28:55.707Z,94.15
2019-05-05T04:31:34.537Z,85.55
2019-05-05T04:34:10.395Z,89.20
2019-05-05T04:36:55.982Z,90.90
2019-05-05T04:39:26.279Z,98.07
2019-05-05T04:42:11.011Z,102.22
2019-05-05T04:44:47.024Z,107.52
2019-05-05T04:47:28.078Z,102.87
2019-05-05T04:50:06.883Z,80.83
2019-05-05T04:52:43.949Z,105.90
2019-05-05T04:55:19.840Z,84.58
2019-05-05T04:58:04.505Z,108.55
2019-05-05T05:01:24.635Z,109.10
2019-05-05T05:07:36.653Z,107.05
2019-05-05T05:13:31.397Z,118.37
2019-05-05T05:16:09.926Z,111.10
2019-05-05T05:18:45.534Z,114.57
2019-05-05T05:21:23.705Z,118.70
2019-05-05T05:28:14.160Z,119.02
2019-05-05T05:30:48.317Z,127.50
2019-05-05T05:36:16.854Z,117.08
2019-05-05T05:42:01.183Z,107.95
2019-05-05T05:48:05.306Z,111.42
2019-05-05T05:51:14.642Z,109.52
2019-05-05T05:56:18.435Z,117.00
2019-05-05T05:58:57.096Z,94.85
2019-05-05T06:01:37.960Z,115.97
2019-05-05T06:04:20.988Z,114.85
2019-05-05T06:06:56.371Z,103.32
2019-05-05T08:12:04.294Z,371.73
2019-05-05T08:14:45.517Z,158.72
2019-05-05T08:17:40.254Z,257.90
2019-05-05T08:20:19.420Z,115.47
2019-05-05T08:23:28.658Z,81.22
2019-05-05T08:26:04.589Z,197.93
2019-05-05T08:28:44.187Z,94.92
2019-05-05T08:31:22.340Z,85.35
2019-05-05T08:34:00.363Z,83.42
2019-05-05T08:36:39.417Z,72.47
2019-05-05T08:39:15.888Z,112.00
2019-05-05T08:41:56.571Z,143.28
2019-05-05T08:44:41.480Z,77.95
2019-05-05T08:47:17.650Z,80.77
2019-05-05T08:49:54.127Z,85.57
2019-05-05T08:52:29.821Z,101.05
2019-05-05T08:55:07.498Z,85.67
2019-05-05T08:57:45.350Z,68.00
2019-05-05T09:00:24.481Z,58.85
2019-05-05T09:03:03.573Z,62.88
2019-05-05T09:05:38.351Z,72.15
2019-05-05T09:08:14.077Z,64.15
2019-05-05T09:10:56.980Z,65.20
2019-05-05T09:13:33.875Z,185.65
2019-05-05T09:16:09.739Z,121.13
2019-05-05T09:21:41.688Z,90.28
2019-05-05T09:24:24.846Z,86.92
2019-05-05T09:27:17.307Z,64.72
2019-05-05T09:30:00.657Z,79.92
2019-05-05T09:32:37.570Z,66.17
2019-05-05T09:35:15.169Z,80.20
2019-05-05T09:37:53.843Z,90.50
2019-05-05T09:40:33.498Z,89.42
2019-05-05T09:43:15.026Z,70.47
2019-05-05T09:45:54.452Z,51.95
2019-05-05T09:48:33.959Z,64.75
2019-05-05T09:51:10.154Z,50.23
2019-05-05T09:56:23.829Z,57.50
2019-05-05T09:59:00.676Z,54.53
2019-05-05T10:01:37.313Z,68.12
2019-05-05T10:04:18.278Z,55.35
2019-05-05T10:06:55.450Z,66.35
2019-05-05T10:09:31.169Z,71.75
2019-05-05T10:12:06.905Z,62.00
2019-05-05T10:14:44.922Z,45.60
2019-05-05T10:17:24.461Z,53.78
2019-05-05T10:20:03.877Z,56.98
2019-05-05T10:22:39.024Z,52.10
2019-05-05T10:25:31.707Z,43.25
2019-05-05T10:28:09.337Z,51.13
2019-05-05T10:30:46.749Z,59.35
2019-05-05T10:33:27.535Z,154.38
2019-05-05T10:36:07.574Z,156.67
2019-05-05T10:38:46.996Z,182.02
2019-05-05T10:41:24.089Z,133.93
2019-05-05T10:44:03.671Z,120.85
2019-05-05T10:46:42.135Z,164.35
2019-05-05T10:49:19.480Z,138.50
2019-05-05T10:51:56.895Z,110.03
2019-05-05T10:54:43.279Z,114.40
2019-05-05T10:57:10.318Z,88.37
2019-05-05T10:59:48.385Z,72.12
2019-05-05T11:02:25.724Z,88.60
2019-05-05T11:05:04.083Z,79.70
2019-05-05T11:07:40.256Z,69.82
2019-05-05T11:10:17.030Z,68.60
2019-05-05T11:15:33.529Z,58.83
2019-05-05T11:18:11.312Z,58.52
2019-05-05T11:20:50.473Z,56.00
2019-05-05T11:23:29.417Z,52.20
2019-05-05T11:26:06.388Z,51.68
2019-05-05T11:28:44.390Z,42.50
2019-05-05T11:31:23.919Z,46.65
2019-05-05T11:34:01.321Z,53.50
2019-05-05T11:36:40.086Z,43.38
2019-05-05T11:39:18.192Z,44.05
2019-05-05T11:41:56.726Z,45.00
2019-05-05T11:44:37.406Z,57.38
2019-05-05T11:47:13.986Z,55.55
2019-05-05T11:49:53.824Z,51.98
2019-05-05T11:52:29.664Z,52.23
2019-05-05T11:55:11.631Z,46.65
2019-05-05T11:57:43.768Z,49.53
2019-05-05T12:00:21.231Z,57.03
2019-05-05T12:03:09.886Z,48.55
2019-05-05T12:05:57.311Z,51.73
2019-05-05T12:08:37.918Z,51.45
2019-05-05T12:11:15.074Z,40.03
2019-05-05T12:13:54.431Z,40.58
2019-05-05T12:16:34.666Z,46.58
2019-05-05T12:19:13.768Z,44.95
2019-05-05T12:21:57.700Z,45.88
2019-05-05T12:24:37.178Z,45.03
2019-05-05T12:27:16.325Z,58.83
2019-05-05T12:29:54.452Z,57.80
2019-05-05T12:32:36.601Z,50.80
2019-05-05T12:35:14.938Z,46.88
2019-05-05T12:37:53.821Z,52.20
2019-05-05T12:40:34.788Z,47.58
2019-05-05T12:43:37.159Z,45.40
2019-05-05T12:46:30.632Z,40.78
2019-05-05T12:49:09.478Z,44.88
2019-05-05T12:51:47.448Z,48.85
2019-05-05T12:54:24.557Z,56.08
2019-05-05T12:57:00.876Z,62.08
2019-05-05T12:59:36.953Z,59.13
2019-05-05T13:02:14.777Z,54.90
2019-05-05T13:04:53.994Z,53.85
2019-05-05T13:07:31.258Z,57.70
2019-05-05T13:10:19.821Z,60.60
2019-05-05T13:12:55.919Z,57.40
2019-05-05T13:15:33.779Z,65.67
2019-05-05T13:18:14.032Z,59.60
2019-05-05T13:21:07.163Z,52.90
2019-05-05T13:24:04.355Z,48.58
2019-05-05T13:27:08.499Z,47.70
2019-05-05T13:29:45.241Z,51.33
2019-05-05T13:32:21.910Z,54.45
2019-05-05T13:35:00.864Z,51.92
2019-05-05T13:37:44.269Z,47.58
2019-05-05T13:40:28.658Z,43.17
2019-05-05T13:43:06.918Z,50.63
2019-05-05T13:46:01.258Z,49.90
2019-05-05T13:48:37.431Z,55.50
2019-05-05T13:51:17.799Z,44.75
2019-05-05T13:53:58.792Z,42.08
2019-05-05T13:56:40.268Z,48.05
2019-05-05T13:59:26.618Z,53.05
2019-05-05T14:02:13.793Z,55.92
2019-05-05T14:04:50.780Z,52.13
2019-05-05T14:07:28.002Z,62.78
2019-05-05T14:10:04.912Z,48.42
2019-05-05T14:12:43.762Z,41.37
2019-05-05T14:15:33.985Z,44.25
2019-05-05T14:18:19.270Z,48.02
2019-05-05T14:20:56.278Z,49.63
2019-05-05T14:26:36.358Z,36.75
2019-05-05T14:29:14.670Z,36.95
2019-05-05T14:31:57.117Z,36.77
2019-05-05T14:34:41.515Z,40.10
2019-05-05T14:37:34.042Z,36.38
2019-05-05T14:40:28.972Z,37.75
2019-05-05T14:43:07.715Z,35.95
2019-05-05T14:45:45.025Z,39.00
2019-05-05T14:48:24.186Z,39.55
2019-05-05T14:51:04.289Z,37.75
2019-05-05T14:53:44.483Z,36.25
2019-05-05T14:56:35.430Z,38.92
2019-05-05T14:59:03.871Z,39.48
2019-05-05T15:01:41.639Z,43.83
2019-05-05T15:04:36.154Z,42.80
2019-05-05T15:07:20.401Z,44.42
2019-05-05T15:10:23.957Z,43.73
2019-05-05T15:13:04.541Z,41.20
2019-05-05T15:18:35.564Z,45.92
2019-05-05T15:21:18.939Z,45.90
2019-05-05T15:23:57.259Z,47.25
2019-05-05T15:26:34.434Z,50.35
2019-05-05T15:29:18.956Z,51.77
2019-05-05T15:31:56.315Z,46.23
2019-05-05T15:34:47.676Z,43.20
2019-05-05T15:37:29.819Z,51.88
2019-05-05T15:43:18.662Z,48.40
2019-05-05T15:46:00.697Z,48.38
2019-05-05T15:48:39.506Z,40.03
2019-05-05T15:51:18.811Z,44.00
2019-05-05T15:53:56.911Z,41.60
2019-05-05T15:59:28.521Z,43.98
2019-05-05T16:02:14.001Z,45.92
2019-05-05T16:04:55.319Z,47.77
2019-05-05T16:07:33.922Z,46.58
2019-05-05T16:10:15.944Z,44.25
2019-05-05T16:12:54.677Z,40.60
2019-05-05T16:15:39.390Z,48.15
2019-05-05T16:18:32.827Z,49.00
2019-05-05T16:21:26.285Z,54.85
2019-05-05T16:24:05.803Z,50.65
2019-05-05T16:26:43.286Z,55.40
2019-05-05T16:29:23.760Z,52.95
2019-05-05T16:32:05.475Z,50.52
2019-05-05T16:34:41.985Z,52.53
2019-05-05T16:39:54.963Z,59.10
2019-05-05T16:42:35.316Z,55.30
2019-05-05T16:45:13.670Z,56.23
2019-05-05T16:47:49.980Z,59.63
2019-05-05T16:50:31.815Z,62.93
2019-05-05T16:53:17.118Z,57.80
2019-05-05T16:55:53.937Z,53.15
2019-05-05T17:01:08.434Z,59.98
2019-05-05T17:03:45.840Z,60.20
2019-05-05T17:06:24.377Z,59.35
2019-05-05T17:09:00.911Z,59.85
2019-05-05T17:11:37.657Z,64.62
2019-05-05T17:14:23.433Z,64.17
2019-05-05T17:17:08.965Z,64.32
2019-05-05T17:19:47.721Z,65.28
2019-05-05T17:22:35.390Z,62.38
2019-05-05T17:25:13.845Z,60.55
2019-05-05T17:27:54.405Z,60.52
2019-05-05T17:30:29.735Z,72.40
2019-05-05T17:33:05.614Z,70.47
2019-05-05T17:35:41.708Z,67.08
2019-05-05T17:38:18.879Z,68.00
2019-05-05T17:40:55.690Z,65.92
2019-05-05T17:43:34.049Z,65.87
2019-05-05T17:46:15.345Z,63.95
2019-05-05T17:48:55.928Z,65.15
2019-05-05T17:51:37.035Z,65.25
2019-05-05T17:54:33.908Z,65.83
2019-05-05T17:57:09.689Z,71.53
2019-05-05T17:59:45.769Z,64.92
2019-05-05T18:02:23.675Z,66.80
2019-05-05T18:04:59.624Z,70.17
2019-05-05T18:07:36.571Z,68.87
2019-05-05T18:10:26.231Z,70.20
2019-05-05T18:13:04.629Z,67.32
2019-05-05T18:15:54.407Z,69.77
2019-05-05T18:18:30.630Z,70.97
2019-05-05T18:21:08.293Z,81.10
2019-05-05T18:23:48.449Z,80.53
2019-05-05T18:26:26.861Z,73.30
2019-05-05T18:29:03.822Z,73.55
2019-05-05T18:31:39.274Z,76.72
2019-05-05T18:34:16.233Z,70.25
2019-05-05T18:36:54.453Z,76.85
2019-05-05T18:39:30.757Z,74.58
2019-05-05T18:42:13.814Z,83.65
2019-05-05T18:44:50.177Z,87.12
2019-05-05T18:47:28.578Z,78.42
2019-05-05T18:50:06.148Z,79.62
2019-05-05T18:52:44.553Z,75.65
2019-05-05T18:55:20.919Z,79.37
2019-05-05T18:57:57.675Z,82.12
2019-05-05T19:00:50.495Z,84.77
2019-05-05T19:03:28.282Z,82.72
2019-05-05T19:06:05.200Z,85.38
2019-05-05T19:11:20.249Z,79.07
2019-05-05T19:13:57.146Z,84.85
2019-05-05T19:19:10.953Z,87.65
2019-05-05T19:21:50.533Z,90.28
2019-05-05T19:24:28.569Z,90.55
2019-05-05T19:27:04.242Z,92.42
2019-05-05T19:29:40.917Z,95.80
2019-05-05T19:32:16.289Z,93.35
2019-05-05T19:34:54.242Z,93.45
2019-05-05T19:37:28.457Z,92.95
2019-05-05T19:40:06.193Z,89.65
2019-05-05T19:42:45.941Z,94.62
2019-05-05T19:45:24.082Z,95.83
2019-05-05T19:48:00.396Z,94.30
2019-05-05T19:50:38.639Z,86.43
2019-05-05T19:53:28.095Z,94.32
2019-05-05T19:56:04.639Z,89.72
2019-05-05T19:58:55.082Z,98.90
2019-05-05T20:01:31.588Z,92.90
2019-05-05T20:06:36.581Z,88.33
2019-05-05T20:09:16.789Z,86.80
2019-05-05T20:11:54.346Z,85.38
2019-05-05T20:14:30.454Z,90.53
2019-05-05T20:17:14.638Z,89.58
2019-05-05T20:19:50.131Z,88.47
2019-05-05T20:22:26.571Z,92.50
2019-05-05T20:25:04.250Z,89.75
2019-05-05T20:27:39.477Z,89.25
2019-05-05T20:30:20.509Z,86.90
2019-05-05T20:33:00.384Z,79.17
2019-05-05T20:35:40.605Z,80.40
2019-05-05T20:38:21.025Z,80.90
2019-05-05T20:41:14.357Z,83.80
2019-05-05T20:43:53.991Z,90.80
2019-05-05T20:46:29.853Z,83.87
2019-05-05T20:49:05.587Z,81.00
2019-05-05T20:51:41.237Z,81.70
2019-05-05T20:54:17.032Z,78.57
2019-05-05T20:56:53.981Z,73.05
2019-05-05T20:59:31.147Z,83.65
2019-05-05T21:02:09.125Z,79.82
2019-05-05T21:04:46.137Z,81.02
2019-05-05T21:07:24.416Z,81.80
2019-05-05T21:09:58.852Z,83.12
2019-05-05T21:12:42.276Z,89.55
2019-05-05T21:17:48.434Z,85.95
2019-05-05T21:20:24.622Z,88.27
2019-05-05T21:23:07.386Z,91.25
2019-05-05T21:26:00.989Z,93.52
2019-05-05T21:28:36.520Z,100.38
2019-05-05T21:31:14.346Z,90.65
2019-05-05T21:33:50.813Z,127.27
2019-05-05T21:36:26.670Z,101.82
2019-05-05T21:39:03.913Z,95.28
2019-05-05T21:44:14.657Z,101.35
2019-05-05T21:46:51.103Z,102.38
2019-05-05T21:49:26.754Z,100.35
2019-05-05T21:52:07.869Z,105.75
2019-05-05T21:54:50.174Z,106.58
2019-05-05T21:57:31.386Z,93.72
2019-05-05T22:00:09.092Z,100.55
2019-05-05T22:02:46.014Z,95.53
2019-05-05T22:05:23.889Z,109.80
2019-05-05T22:07:58.588Z,91.60
2019-05-05T22:10:34.642Z,92.10
2019-05-05T22:13:10.061Z,94.25
2019-05-05T22:15:45.945Z,95.28
2019-05-05T22:18:21.440Z,105.22
2019-05-05T22:20:58.531Z,96.20
2019-05-05T22:23:36.609Z,94.45
2019-05-05T22:26:14.601Z,93.25
2019-05-05T22:28:49.957Z,86.20
2019-05-05T22:31:25.696Z,91.27
2019-05-05T22:34:05.100Z,91.87
2019-05-05T22:39:16.383Z,87.02
2019-05-05T22:41:50.824Z,89.85
2019-05-05T22:44:26.770Z,84.60
2019-05-05T22:47:04.506Z,83.72
2019-05-05T22:49:39.466Z,83.00
2019-05-05T22:52:15.186Z,83.90
2019-05-05T22:54:50.702Z,83.42
2019-05-05T22:57:26.907Z,76.77
2019-05-05T23:00:03.765Z,76.92
2019-05-05T23:02:56.720Z,77.25
2019-05-05T23:05:50.126Z,78.57
2019-05-05T23:08:27.697Z,66.97
2019-05-05T23:11:04.081Z,72.00
2019-05-05T23:16:16.500Z,67.78
2019-05-05T23:18:54.226Z,63.65
2019-05-05T23:24:16.916Z,73.60
2019-05-05T23:26:54.623Z,70.47
2019-05-05T23:29:30.270Z,67.95
2019-05-05T23:32:06.245Z,70.12
2019-05-05T23:34:41.856Z,77.43
2019-05-05T23:37:17.810Z,65.72
2019-05-05T23:39:54.123Z,69.07
2019-05-05T23:42:29.961Z,68.05
2019-05-05T23:45:09.209Z,58.23
2019-05-05T23:47:45.060Z,58.38
2019-05-05T23:50:21.219Z,60.67
2019-05-05T23:52:58.538Z,60.78
2019-05-05T23:55:34.453Z,50.15
2019-05-05T23:58:10.575Z,53.73
